createdAt,value
2018-12-16T00:03:45.993Z,-2.76
2018-12-16T00:14:06.282Z,-2.76
2018-12-16T00:24:27.014Z,-2.76
2018-12-16T00:34:47.374Z,-2.74
2018-12-16T00:45:06.968Z,-2.80
2018-12-16T00:55:26.637Z,-2.79
2018-12-16T01:05:45.818Z,-2.96
2018-12-16T01:16:05.972Z,-2.94
2018-12-16T01:26:25.954Z,-3.02
2018-12-16T01:36:46.975Z,-3.09
2018-12-16T01:47:06.920Z,-3.14
2018-12-16T01:57:27.757Z,-3.23
2018-12-16T02:07:46.904Z,-3.42
2018-12-16T02:18:06.352Z,-3.48
2018-12-16T02:28:26.024Z,-3.78
2018-12-16T02:38:45.220Z,-4.09
2018-12-16T02:49:05.125Z,-4.33
2018-12-16T02:59:24.423Z,-4.68
2018-12-16T03:09:44.365Z,-5.13
2018-12-16T03:20:03.986Z,-5.66
2018-12-16T03:30:23.470Z,-5.84
2018-12-16T03:40:43.420Z,-5.99
2018-12-16T03:51:04.118Z,-6.16
2018-12-16T04:01:23.714Z,-6.83
2018-12-16T04:11:43.384Z,-7.45
2018-12-16T04:22:02.917Z,-8.11
2018-12-16T04:32:22.853Z,-8.60
2018-12-16T04:42:42.671Z,-8.99
2018-12-16T04:53:01.967Z,-9.47
2018-12-16T05:03:21.152Z,-9.62
2018-12-16T05:13:40.943Z,-9.86
2018-12-16T05:24:00.610Z,-9.97
2018-12-16T05:34:19.460Z,-10.13
2018-12-16T05:44:38.873Z,-10.25
2018-12-16T05:54:59.850Z,-10.32
2018-12-16T06:05:22.198Z,-10.58
2018-12-16T06:15:42.095Z,-10.82
2018-12-16T06:26:01.178Z,-11.19
2018-12-16T06:36:20.706Z,-11.43
2018-12-16T06:46:44.803Z,-11.85
2018-12-16T06:57:05.125Z,-11.75
2018-12-16T07:07:24.251Z,-11.74
2018-12-16T07:17:44.359Z,-12.09
2018-12-16T07:28:05.329Z,-11.91
2018-12-16T07:38:24.836Z,-11.95
2018-12-16T07:48:44.157Z,-11.81
2018-12-16T07:59:04.491Z,-11.68
2018-12-16T08:09:25.072Z,-11.26
2018-12-16T08:19:45.560Z,-11.07
2018-12-16T08:30:06.677Z,-10.74
2018-12-16T08:40:26.792Z,-10.39
2018-12-16T08:50:46.040Z,-9.92
2018-12-16T09:01:06.290Z,-8.50
2018-12-16T09:11:25.981Z,-7.37
2018-12-16T09:21:46.520Z,-5.60
2018-12-16T09:32:05.896Z,-5.62
2018-12-16T09:42:25.354Z,-4.06
2018-12-16T09:52:44.472Z,-4.24
2018-12-16T10:03:04.943Z,-4.28
2018-12-16T10:13:23.959Z,-4.36
2018-12-16T10:23:43.249Z,-3.78
2018-12-16T10:34:03.366Z,-3.75
2018-12-16T10:44:23.781Z,-4.61
2018-12-16T10:54:43.624Z,-4.45
2018-12-16T11:05:04.158Z,-1.86
2018-12-16T11:15:24.413Z,-1.02
2018-12-16T11:25:53.241Z,-1.07
2018-12-16T11:36:13.372Z,-0.97
2018-12-16T11:46:32.877Z,-1.67
2018-12-16T11:56:53.260Z,-1.98
2018-12-16T12:07:13.958Z,-0.91
2018-12-16T12:17:34.050Z,-0.46
2018-12-16T12:27:54.991Z,0.35
2018-12-16T12:38:16.277Z,0.22
2018-12-16T12:48:37.856Z,0.88
2018-12-16T12:58:56.941Z,0.94
2018-12-16T13:09:16.953Z,0.74
2018-12-16T13:19:37.654Z,0.08
2018-12-16T13:29:58.015Z,0.10
2018-12-16T13:40:18.472Z,-0.15
2018-12-16T13:50:39.472Z,-0.23
2018-12-16T14:00:59.377Z,-0.79
2018-12-16T14:11:20.558Z,-0.85
2018-12-16T14:21:40.530Z,-0.94
2018-12-16T14:32:01.016Z,-1.19
2018-12-16T14:42:20.792Z,-1.37
2018-12-16T14:52:41.174Z,-1.65
2018-12-16T15:03:01.577Z,-1.85
2018-12-16T15:13:23.105Z,-1.93
2018-12-16T15:23:43.343Z,-1.93
2018-12-16T15:34:03.365Z,-2.01
2018-12-16T15:44:23.763Z,-1.90
2018-12-16T15:54:43.961Z,-1.97
2018-12-16T16:05:04.729Z,-1.98
2018-12-16T16:15:25.483Z,-1.91
2018-12-16T16:25:46.186Z,-1.97
2018-12-16T16:36:06.040Z,-1.78
2018-12-16T16:46:28.621Z,-1.78
2018-12-16T16:56:48.971Z,-1.73
2018-12-16T17:07:08.917Z,-1.77
2018-12-16T17:17:29.323Z,-1.81
2018-12-16T17:27:48.757Z,-1.97
2018-12-16T17:38:08.432Z,-1.99
2018-12-16T17:48:28.855Z,-1.91
2018-12-16T17:58:48.592Z,-1.76
2018-12-16T18:09:08.630Z,-1.74
2018-12-16T18:19:28.524Z,-1.74
2018-12-16T18:29:48.557Z,-1.72
2018-12-16T18:40:09.427Z,-1.59
2018-12-16T18:50:29.621Z,-1.62
2018-12-16T19:00:50.820Z,-1.64
2018-12-16T19:11:11.762Z,-1.58
2018-12-16T19:21:31.096Z,-1.57
2018-12-16T19:31:51.278Z,-1.67
2018-12-16T19:42:11.984Z,-1.59
2018-12-16T19:52:32.165Z,-1.54
2018-12-16T20:02:54.307Z,-1.54
2018-12-16T20:13:15.025Z,-1.55
2018-12-16T20:23:36.106Z,-1.42
2018-12-16T20:33:57.180Z,-1.46
2018-12-16T20:44:18.019Z,-1.46
2018-12-16T20:54:40.228Z,-1.44
2018-12-16T21:05:02.429Z,-1.28
2018-12-16T21:15:40.521Z,-1.28
2018-12-16T21:26:00.193Z,-1.39
2018-12-16T21:36:20.294Z,-1.33
2018-12-16T21:46:39.977Z,-1.38
2018-12-16T21:56:59.551Z,-1.24
2018-12-16T22:07:19.908Z,-1.29
2018-12-16T22:17:39.438Z,-1.25
2018-12-16T22:27:59.173Z,-1.18
2018-12-16T22:38:19.905Z,-1.23
2018-12-16T22:48:40.553Z,-1.21
2018-12-16T22:58:59.353Z,-1.21
2018-12-16T23:09:18.591Z,-1.20
2018-12-16T23:19:39.765Z,-1.08
2018-12-16T23:30:00.289Z,-1.17
2018-12-16T23:40:19.778Z,-1.17
2018-12-16T23:50:39.747Z,-1.08
